sensor_id;sensor_type;location;lat;lon;timestamp;temperature;humidity
24860;DHT22;12936;52.006;4.350;2023-11-22T00:01:20;8.60;99.90
24860;DHT22;12936;52.006;4.350;2023-11-22T00:04:50;8.60;99.90
24860;DHT22;12936;52.006;4.350;2023-11-22T00:07:40;8.50;99.90
24860;DHT22;12936;52.006;4.350;2023-11-22T00:10:09;8.50;99.90
24860;DHT22;12936;52.006;4.350;2023-11-22T00:13:03;8.50;99.90
24860;DHT22;12936;52.006;4.350;2023-11-22T00:15:33;8.50;99.90
24860;DHT22;12936;52.006;4.350;2023-11-22T00:18:04;8.50;99.90
24860;DHT22;12936;52.006;4.350;2023-11-22T00:21:13;8.40;99.90
24860;DHT22;12936;52.006;4.350;2023-11-22T00:23:44;8.50;99.90
24860;DHT22;12936;52.006;4.350;2023-11-22T00:26:40;8.40;99.90
24860;DHT22;12936;52.006;4.350;2023-11-22T00:29:13;8.40;99.90
24860;DHT22;12936;52.006;4.350;2023-11-22T00:31:47;8.40;99.90
24860;DHT22;12936;52.006;4.350;2023-11-22T00:34:31;8.50;99.90
24860;DHT22;12936;52.006;4.350;2023-11-22T00:37:05;8.40;99.90
24860;DHT22;12936;52.006;4.350;2023-11-22T00:39:56;8.40;99.90
24860;DHT22;12936;52.006;4.350;2023-11-22T00:42:34;8.40;99.90
24860;DHT22;12936;52.006;4.350;2023-11-22T00:45:12;8.40;99.90
24860;DHT22;12936;52.006;4.350;2023-11-22T00:47:47;8.40;99.90
24860;DHT22;12936;52.006;4.350;2023-11-22T00:50:16;8.30;99.90
24860;DHT22;12936;52.006;4.350;2023-11-22T00:52:56;8.30;99.90
24860;DHT22;12936;52.006;4.350;2023-11-22T00:56:05;8.30;99.90
24860;DHT22;12936;52.006;4.350;2023-11-22T00:58:37;8.30;99.90
24860;DHT22;12936;52.006;4.350;2023-11-22T01:01:10;8.20;99.90
24860;DHT22;12936;52.006;4.350;2023-11-22T01:03:39;8.30;99.90
24860;DHT22;12936;52.006;4.350;2023-11-22T01:06:10;8.20;99.90
24860;DHT22;12936;52.006;4.350;2023-11-22T01:08:43;8.20;99.90
24860;DHT22;12936;52.006;4.350;2023-11-22T01:11:13;8.20;99.90
24860;DHT22;12936;52.006;4.350;2023-11-22T01:13:44;8.20;99.90
24860;DHT22;12936;52.006;4.350;2023-11-22T01:16:14;8.20;99.90
24860;DHT22;12936;52.006;4.350;2023-11-22T01:18:47;8.20;99.90
24860;DHT22;12936;52.006;4.350;2023-11-22T01:21:35;8.10;99.90
24860;DHT22;12936;52.006;4.350;2023-11-22T01:24:07;8.10;99.90
24860;DHT22;12936;52.006;4.350;2023-11-22T01:26:56;8.10;99.90
24860;DHT22;12936;52.006;4.350;2023-11-22T01:29:31;8.10;99.90
24860;DHT22;12936;52.006;4.350;2023-11-22T01:32:07;8.10;99.90
24860;DHT22;12936;52.006;4.350;2023-11-22T01:34:37;8.10;99.90
24860;DHT22;12936;52.006;4.350;2023-11-22T01:37:06;8.10;99.90
24860;DHT22;12936;52.006;4.350;2023-11-22T01:40:00;8.00;99.90
24860;DHT22;12936;52.006;4.350;2023-11-22T01:42:30;8.00;99.90
24860;DHT22;12936;52.006;4.350;2023-11-22T01:45:04;8.00;99.90
24860;DHT22;12936;52.006;4.350;2023-11-22T01:47:37;8.00;99.90
24860;DHT22;12936;52.006;4.350;2023-11-22T01:50:15;8.00;99.90
24860;DHT22;12936;52.006;4.350;2023-11-22T01:53:04;8.00;99.90
24860;DHT22;12936;52.006;4.350;2023-11-22T01:55:53;8.00;99.90
24860;DHT22;12936;52.006;4.350;2023-11-22T01:58:45;8.00;99.90
24860;DHT22;12936;52.006;4.350;2023-11-22T02:01:19;8.00;99.90
24860;DHT22;12936;52.006;4.350;2023-11-22T02:03:49;7.90;99.90
24860;DHT22;12936;52.006;4.350;2023-11-22T02:06:21;7.90;99.90
24860;DHT22;12936;52.006;4.350;2023-11-22T02:08:51;7.90;99.90
24860;DHT22;12936;52.006;4.350;2023-11-22T02:11:42;8.00;99.90
24860;DHT22;12936;52.006;4.350;2023-11-22T02:14:12;7.90;99.90
24860;DHT22;12936;52.006;4.350;2023-11-22T02:16:42;7.90;99.90
24860;DHT22;12936;52.006;4.350;2023-11-22T02:19:18;7.90;99.90
24860;DHT22;12936;52.006;4.350;2023-11-22T02:21:48;7.80;99.90
24860;DHT22;12936;52.006;4.350;2023-11-22T02:25:03;7.80;99.90
24860;DHT22;12936;52.006;4.350;2023-11-22T02:27:42;7.80;99.90
24860;DHT22;12936;52.006;4.350;2023-11-22T02:30:31;7.80;99.90
24860;DHT22;12936;52.006;4.350;2023-11-22T02:33:04;7.80;99.90
24860;DHT22;12936;52.006;4.350;2023-11-22T02:35:39;7.80;99.90
24860;DHT22;12936;52.006;4.350;2023-11-22T02:38:30;7.80;99.90
24860;DHT22;12936;52.006;4.350;2023-11-22T02:41:05;7.80;99.90
24860;DHT22;12936;52.006;4.350;2023-11-22T02:43:36;7.80;99.90
24860;DHT22;12936;52.006;4.350;2023-11-22T02:46:10;7.80;99.90
24860;DHT22;12936;52.006;4.350;2023-11-22T02:49:20;7.80;99.90
24860;DHT22;12936;52.006;4.350;2023-11-22T02:52:11;7.80;99.90
24860;DHT22;12936;52.006;4.350;2023-11-22T02:55:04;7.80;99.90
24860;DHT22;12936;52.006;4.350;2023-11-22T02:57:40;7.80;99.90
24860;DHT22;12936;52.006;4.350;2023-11-22T03:00:12;7.70;99.90
24860;DHT22;12936;52.006;4.350;2023-11-22T03:03:01;7.80;99.90
24860;DHT22;12936;52.006;4.350;2023-11-22T03:05:55;7.80;99.90
24860;DHT22;12936;52.006;4.350;2023-11-22T03:08:25;7.80;99.90
24860;DHT22;12936;52.006;4.350;2023-11-22T03:11:04;7.70;99.90
24860;DHT22;12936;52.006;4.350;2023-11-22T03:13:38;7.80;99.90
24860;DHT22;12936;52.006;4.350;2023-11-22T03:16:30;7.70;99.90
24860;DHT22;12936;52.006;4.350;2023-11-22T03:19:08;7.70;99.90
24860;DHT22;12936;52.006;4.350;2023-11-22T03:22:12;7.70;99.90
24860;DHT22;12936;52.006;4.350;2023-11-22T03:24:44;7.70;99.90
24860;DHT22;12936;52.006;4.350;2023-11-22T03:27:34;7.70;99.90
24860;DHT22;12936;52.006;4.350;2023-11-22T03:30:06;7.70;99.90
24860;DHT22;12936;52.006;4.350;2023-11-22T03:32:40;7.70;99.90
24860;DHT22;12936;52.006;4.350;2023-11-22T03:35:12;7.70;99.90
24860;DHT22;12936;52.006;4.350;2023-11-22T03:37:43;7.70;99.90
24860;DHT22;12936;52.006;4.350;2023-11-22T03:40:21;7.70;99.90
24860;DHT22;12936;52.006;4.350;2023-11-22T03:42:53;7.70;99.90
24860;DHT22;12936;52.006;4.350;2023-11-22T03:45:22;7.70;99.90
24860;DHT22;12936;52.006;4.350;2023-11-22T03:47:53;7.70;99.90
24860;DHT22;12936;52.006;4.350;2023-11-22T03:50:22;7.70;99.90
24860;DHT22;12936;52.006;4.350;2023-11-22T03:52:50;7.70;99.90
24860;DHT22;12936;52.006;4.350;2023-11-22T03:55:20;7.70;99.90
24860;DHT22;12936;52.006;4.350;2023-11-22T03:58:15;7.80;99.90
24860;DHT22;12936;52.006;4.350;2023-11-22T04:00:51;7.70;99.90
24860;DHT22;12936;52.006;4.350;2023-11-22T04:03:20;7.70;99.90
24860;DHT22;12936;52.006;4.350;2023-11-22T04:06:14;7.70;99.90
24860;DHT22;12936;52.006;4.350;2023-11-22T04:08:47;7.70;99.90
24860;DHT22;12936;52.006;4.350;2023-11-22T04:11:21;7.70;99.90
24860;DHT22;12936;52.006;4.350;2023-11-22T04:14:10;7.70;99.90
24860;DHT22;12936;52.006;4.350;2023-11-22T04:16:41;7.70;99.90
24860;DHT22;12936;52.006;4.350;2023-11-22T04:19:11;7.70;99.90
24860;DHT22;12936;52.006;4.350;2023-11-22T04:21:41;7.70;99.90
24860;DHT22;12936;52.006;4.350;2023-11-22T04:24:34;7.60;99.90
24860;DHT22;12936;52.006;4.350;2023-11-22T04:27:03;7.70;99.90
24860;DHT22;12936;52.006;4.350;2023-11-22T04:29:34;7.60;99.90
24860;DHT22;12936;52.006;4.350;2023-11-22T04:32:13;7.60;99.90
24860;DHT22;12936;52.006;4.350;2023-11-22T04:34:46;7.60;99.90
24860;DHT22;12936;52.006;4.350;2023-11-22T04:37:16;7.50;99.90
24860;DHT22;12936;52.006;4.350;2023-11-22T04:39:45;7.60;99.90
24860;DHT22;12936;52.006;4.350;2023-11-22T04:42:20;7.60;99.90
24860;DHT22;12936;52.006;4.350;2023-11-22T04:44:50;7.60;99.90
24860;DHT22;12936;52.006;4.350;2023-11-22T04:47:32;7.60;99.90
24860;DHT22;12936;52.006;4.350;2023-11-22T04:50:05;7.60;99.90
24860;DHT22;12936;52.006;4.350;2023-11-22T04:52:37;7.60;99.90
24860;DHT22;12936;52.006;4.350;2023-11-22T04:55:08;7.60;99.90
24860;DHT22;12936;52.006;4.350;2023-11-22T04:57:40;7.60;99.90
24860;DHT22;12936;52.006;4.350;2023-11-22T05:00:25;7.50;99.90
24860;DHT22;12936;52.006;4.350;2023-11-22T05:02:55;7.50;99.90
24860;DHT22;12936;52.006;4.350;2023-11-22T05:05:43;7.50;99.90
24860;DHT22;12936;52.006;4.350;2023-11-22T05:08:21;7.60;99.90
24860;DHT22;12936;52.006;4.350;2023-11-22T05:10:58;7.60;99.90
24860;DHT22;12936;52.006;4.350;2023-11-22T05:13:31;7.50;99.90
24860;DHT22;12936;52.006;4.350;2023-11-22T05:16:04;7.60;99.90
24860;DHT22;12936;52.006;4.350;2023-11-22T05:18:36;7.50;99.90
24860;DHT22;12936;52.006;4.350;2023-11-22T05:21:17;7.60;99.90
24860;DHT22;12936;52.006;4.350;2023-11-22T05:24:08;7.60;99.90
24860;DHT22;12936;52.006;4.350;2023-11-22T05:26:42;7.60;99.90
24860;DHT22;12936;52.006;4.350;2023-11-22T05:29:11;7.60;99.90
24860;DHT22;12936;52.006;4.350;2023-11-22T05:31:42;7.50;99.90
24860;DHT22;12936;52.006;4.350;2023-11-22T05:34:35;7.60;99.90
24860;DHT22;12936;52.006;4.350;2023-11-22T05:37:08;7.50;99.90
24860;DHT22;12936;52.006;4.350;2023-11-22T05:39:36;7.50;99.90
24860;DHT22;12936;52.006;4.350;2023-11-22T05:42:07;7.50;99.90
24860;DHT22;12936;52.006;4.350;2023-11-22T05:44:35;7.50;99.90
24860;DHT22;12936;52.006;4.350;2023-11-22T05:47:08;7.50;99.90
24860;DHT22;12936;52.006;4.350;2023-11-22T05:49:42;7.50;99.90
24860;DHT22;12936;52.006;4.350;2023-11-22T05:52:10;7.50;99.90
24860;DHT22;12936;52.006;4.350;2023-11-22T05:54:39;7.40;99.90
24860;DHT22;12936;52.006;4.350;2023-11-22T05:57:10;7.50;99.90
24860;DHT22;12936;52.006;4.350;2023-11-22T05:59:39;7.50;99.90
24860;DHT22;12936;52.006;4.350;2023-11-22T06:02:14;7.50;99.90
24860;DHT22;12936;52.006;4.350;2023-11-22T06:04:44;7.40;99.90
24860;DHT22;12936;52.006;4.350;2023-11-22T06:07:12;7.40;99.90
24860;DHT22;12936;52.006;4.350;2023-11-22T06:09:40;7.40;99.90
24860;DHT22;12936;52.006;4.350;2023-11-22T06:12:08;7.40;99.90
24860;DHT22;12936;52.006;4.350;2023-11-22T06:14:37;7.40;99.90
24860;DHT22;12936;52.006;4.350;2023-11-22T06:17:05;7.50;99.90
24860;DHT22;12936;52.006;4.350;2023-11-22T06:19:33;7.40;99.90
24860;DHT22;12936;52.006;4.350;2023-11-22T06:22:03;7.40;99.90
24860;DHT22;12936;52.006;4.350;2023-11-22T06:24:31;7.40;99.90
24860;DHT22;12936;52.006;4.350;2023-11-22T06:27:00;7.50;99.90
24860;DHT22;12936;52.006;4.350;2023-11-22T06:29:28;7.40;99.90
24860;DHT22;12936;52.006;4.350;2023-11-22T06:31:57;7.40;99.90
24860;DHT22;12936;52.006;4.350;2023-11-22T06:34:26;7.40;99.90
24860;DHT22;12936;52.006;4.350;2023-11-22T06:36:54;7.40;99.90
24860;DHT22;12936;52.006;4.350;2023-11-22T06:39:23;7.40;99.90
24860;DHT22;12936;52.006;4.350;2023-11-22T06:41:52;7.40;99.90
24860;DHT22;12936;52.006;4.350;2023-11-22T06:44:20;7.40;99.90
24860;DHT22;12936;52.006;4.350;2023-11-22T06:46:49;7.40;99.90
24860;DHT22;12936;52.006;4.350;2023-11-22T06:49:19;7.40;99.90
24860;DHT22;12936;52.006;4.350;2023-11-22T06:51:47;7.40;99.90
24860;DHT22;12936;52.006;4.350;2023-11-22T06:54:15;7.40;99.90
24860;DHT22;12936;52.006;4.350;2023-11-22T06:56:44;7.30;99.90
24860;DHT22;12936;52.006;4.350;2023-11-22T06:59:13;7.40;99.90
24860;DHT22;12936;52.006;4.350;2023-11-22T07:01:42;7.40;99.90
24860;DHT22;12936;52.006;4.350;2023-11-22T07:04:10;7.30;99.90
24860;DHT22;12936;52.006;4.350;2023-11-22T07:06:38;7.40;99.90
24860;DHT22;12936;52.006;4.350;2023-11-22T07:09:06;7.40;99.90
24860;DHT22;12936;52.006;4.350;2023-11-22T07:11:36;7.40;99.90
24860;DHT22;12936;52.006;4.350;2023-11-22T07:14:06;7.40;99.90
24860;DHT22;12936;52.006;4.350;2023-11-22T07:16:34;7.40;99.90
24860;DHT22;12936;52.006;4.350;2023-11-22T07:19:02;7.30;99.90
24860;DHT22;12936;52.006;4.350;2023-11-22T07:21:33;7.40;99.90
24860;DHT22;12936;52.006;4.350;2023-11-22T07:24:05;7.30;99.90
24860;DHT22;12936;52.006;4.350;2023-11-22T07:26:34;7.40;99.90
24860;DHT22;12936;52.006;4.350;2023-11-22T07:29:02;7.30;99.90
24860;DHT22;12936;52.006;4.350;2023-11-22T07:31:33;7.30;99.90
24860;DHT22;12936;52.006;4.350;2023-11-22T07:34:01;7.40;99.90
24860;DHT22;12936;52.006;4.350;2023-11-22T07:36:30;7.30;99.90
24860;DHT22;12936;52.006;4.350;2023-11-22T07:38:58;7.30;99.90
24860;DHT22;12936;52.006;4.350;2023-11-22T07:41:29;7.30;99.90
24860;DHT22;12936;52.006;4.350;2023-11-22T07:43:58;7.30;99.90
24860;DHT22;12936;52.006;4.350;2023-11-22T07:46:26;7.30;99.90
24860;DHT22;12936;52.006;4.350;2023-11-22T07:48:56;7.30;99.90
24860;DHT22;12936;52.006;4.350;2023-11-22T07:51:24;7.30;99.90
24860;DHT22;12936;52.006;4.350;2023-11-22T07:53:52;7.30;99.90
24860;DHT22;12936;52.006;4.350;2023-11-22T07:56:20;7.30;99.90
24860;DHT22;12936;52.006;4.350;2023-11-22T07:58:48;7.30;99.90
24860;DHT22;12936;52.006;4.350;2023-11-22T08:01:16;7.20;99.90
24860;DHT22;12936;52.006;4.350;2023-11-22T08:03:45;7.20;99.90
24860;DHT22;12936;52.006;4.350;2023-11-22T08:06:16;7.30;99.90
24860;DHT22;12936;52.006;4.350;2023-11-22T08:08:44;7.30;99.90
24860;DHT22;12936;52.006;4.350;2023-11-22T08:11:13;7.30;99.90
24860;DHT22;12936;52.006;4.350;2023-11-22T08:13:42;7.30;99.90
24860;DHT22;12936;52.006;4.350;2023-11-22T08:16:12;7.30;99.90
24860;DHT22;12936;52.006;4.350;2023-11-22T08:18:41;7.40;99.90
24860;DHT22;12936;52.006;4.350;2023-11-22T08:21:10;7.40;99.90
24860;DHT22;12936;52.006;4.350;2023-11-22T08:23:40;7.40;99.90
24860;DHT22;12936;52.006;4.350;2023-11-22T08:26:08;7.40;99.90
24860;DHT22;12936;52.006;4.350;2023-11-22T08:28:39;7.50;99.90
24860;DHT22;12936;52.006;4.350;2023-11-22T08:31:07;7.50;99.90
24860;DHT22;12936;52.006;4.350;2023-11-22T08:33:37;7.50;99.90
24860;DHT22;12936;52.006;4.350;2023-11-22T08:36:06;7.50;99.90
24860;DHT22;12936;52.006;4.350;2023-11-22T08:38:34;7.50;99.90
24860;DHT22;12936;52.006;4.350;2023-11-22T08:41:05;7.60;99.90
24860;DHT22;12936;52.006;4.350;2023-11-22T08:43:33;7.60;99.90
24860;DHT22;12936;52.006;4.350;2023-11-22T08:46:02;7.60;99.90
24860;DHT22;12936;52.006;4.350;2023-11-22T08:48:40;7.60;99.90
24860;DHT22;12936;52.006;4.350;2023-11-22T08:51:10;7.70;99.90
24860;DHT22;12936;52.006;4.350;2023-11-22T08:53:38;7.60;99.90
24860;DHT22;12936;52.006;4.350;2023-11-22T08:56:08;7.60;99.90
24860;DHT22;12936;52.006;4.350;2023-11-22T08:58:37;7.70;99.90
24860;DHT22;12936;52.006;4.350;2023-11-22T09:01:05;7.70;99.90
24860;DHT22;12936;52.006;4.350;2023-11-22T09:03:34;7.70;99.90
24860;DHT22;12936;52.006;4.350;2023-11-22T09:06:03;7.70;99.90
24860;DHT22;12936;52.006;4.350;2023-11-22T09:08:33;7.60;99.90
24860;DHT22;12936;52.006;4.350;2023-11-22T09:11:02;7.60;99.90
24860;DHT22;12936;52.006;4.350;2023-11-22T09:13:35;7.70;99.90
24860;DHT22;12936;52.006;4.350;2023-11-22T09:16:03;7.70;99.90
24860;DHT22;12936;52.006;4.350;2023-11-22T09:18:33;7.80;99.90
24860;DHT22;12936;52.006;4.350;2023-11-22T09:21:01;7.80;99.90
24860;DHT22;12936;52.006;4.350;2023-11-22T09:23:29;7.80;99.90
24860;DHT22;12936;52.006;4.350;2023-11-22T09:25:57;7.80;99.90
24860;DHT22;12936;52.006;4.350;2023-11-22T09:28:27;7.90;99.90
24860;DHT22;12936;52.006;4.350;2023-11-22T09:30:56;7.90;99.90
24860;DHT22;12936;52.006;4.350;2023-11-22T09:33:32;7.90;99.90
24860;DHT22;12936;52.006;4.350;2023-11-22T09:36:00;7.90;99.90
24860;DHT22;12936;52.006;4.350;2023-11-22T09:38:35;7.90;99.90
24860;DHT22;12936;52.006;4.350;2023-11-22T09:41:05;8.00;99.90
24860;DHT22;12936;52.006;4.350;2023-11-22T09:43:35;7.90;99.90
24860;DHT22;12936;52.006;4.350;2023-11-22T09:46:05;7.90;99.90
24860;DHT22;12936;52.006;4.350;2023-11-22T09:48:36;7.80;99.90
24860;DHT22;12936;52.006;4.350;2023-11-22T09:51:17;7.80;99.90
24860;DHT22;12936;52.006;4.350;2023-11-22T09:53:53;7.90;99.90
24860;DHT22;12936;52.006;4.350;2023-11-22T09:56:23;7.80;99.90
24860;DHT22;12936;52.006;4.350;2023-11-22T09:58:53;7.90;99.90
24860;DHT22;12936;52.006;4.350;2023-11-22T10:01:24;7.90;99.90
24860;DHT22;12936;52.006;4.350;2023-11-22T10:03:55;7.80;99.90
24860;DHT22;12936;52.006;4.350;2023-11-22T10:06:23;7.90;99.90
24860;DHT22;12936;52.006;4.350;2023-11-22T10:08:51;7.90;99.90
24860;DHT22;12936;52.006;4.350;2023-11-22T10:11:20;7.90;99.90
24860;DHT22;12936;52.006;4.350;2023-11-22T10:13:49;8.00;99.90
24860;DHT22;12936;52.006;4.350;2023-11-22T10:16:18;8.00;99.90
24860;DHT22;12936;52.006;4.350;2023-11-22T10:18:49;8.10;99.90
24860;DHT22;12936;52.006;4.350;2023-11-22T10:21:22;8.10;99.90
24860;DHT22;12936;52.006;4.350;2023-11-22T10:23:53;8.10;99.90
24860;DHT22;12936;52.006;4.350;2023-11-22T10:26:23;8.10;99.90
24860;DHT22;12936;52.006;4.350;2023-11-22T10:28:51;8.20;99.90
24860;DHT22;12936;52.006;4.350;2023-11-22T10:31:20;8.20;99.90
24860;DHT22;12936;52.006;4.350;2023-11-22T10:33:50;8.30;99.90
24860;DHT22;12936;52.006;4.350;2023-11-22T10:36:21;8.30;99.90
24860;DHT22;12936;52.006;4.350;2023-11-22T10:38:49;8.30;99.90
24860;DHT22;12936;52.006;4.350;2023-11-22T10:41:20;8.30;99.90
24860;DHT22;12936;52.006;4.350;2023-11-22T10:43:52;8.40;99.90
24860;DHT22;12936;52.006;4.350;2023-11-22T10:46:27;8.30;99.90
24860;DHT22;12936;52.006;4.350;2023-11-22T10:48:58;8.40;99.90
24860;DHT22;12936;52.006;4.350;2023-11-22T10:51:30;8.40;99.90
24860;DHT22;12936;52.006;4.350;2023-11-22T10:54:00;8.40;99.90
24860;DHT22;12936;52.006;4.350;2023-11-22T10:56:36;8.50;99.90
24860;DHT22;12936;52.006;4.350;2023-11-22T10:59:10;8.50;99.90
24860;DHT22;12936;52.006;4.350;2023-11-22T11:01:44;8.50;99.90
24860;DHT22;12936;52.006;4.350;2023-11-22T11:04:20;8.60;99.90
24860;DHT22;12936;52.006;4.350;2023-11-22T11:06:54;8.60;99.90
24860;DHT22;12936;52.006;4.350;2023-11-22T11:09:28;8.60;99.90
24860;DHT22;12936;52.006;4.350;2023-11-22T11:12:00;8.60;99.90
24860;DHT22;12936;52.006;4.350;2023-11-22T11:14:34;8.70;99.90
24860;DHT22;12936;52.006;4.350;2023-11-22T11:17:03;8.60;99.90
24860;DHT22;12936;52.006;4.350;2023-11-22T11:19:33;8.60;99.90
24860;DHT22;12936;52.006;4.350;2023-11-22T11:22:03;8.70;99.90
24860;DHT22;12936;52.006;4.350;2023-11-22T11:24:38;8.70;99.90
24860;DHT22;12936;52.006;4.350;2023-11-22T11:27:08;8.70;99.90
24860;DHT22;12936;52.006;4.350;2023-11-22T11:29:37;8.60;99.90
24860;DHT22;12936;52.006;4.350;2023-11-22T11:32:10;8.70;99.90
24860;DHT22;12936;52.006;4.350;2023-11-22T11:34:50;8.60;99.90
24860;DHT22;12936;52.006;4.350;2023-11-22T11:37:19;8.60;99.90
24860;DHT22;12936;52.006;4.350;2023-11-22T11:39:47;8.70;99.90
24860;DHT22;12936;52.006;4.350;2023-11-22T11:42:16;8.70;99.90
24860;DHT22;12936;52.006;4.350;2023-11-22T11:44:51;8.80;99.90
24860;DHT22;12936;52.006;4.350;2023-11-22T11:47:30;8.70;99.90
24860;DHT22;12936;52.006;4.350;2023-11-22T11:49:59;8.80;99.90
24860;DHT22;12936;52.006;4.350;2023-11-22T11:52:28;8.80;99.90
24860;DHT22;12936;52.006;4.350;2023-11-22T11:54:57;8.80;99.90
24860;DHT22;12936;52.006;4.350;2023-11-22T11:57:30;8.90;99.90
24860;DHT22;12936;52.006;4.350;2023-11-22T11:59:59;8.90;99.90
24860;DHT22;12936;52.006;4.350;2023-11-22T12:02:29;8.90;99.90
24860;DHT22;12936;52.006;4.350;2023-11-22T12:04:59;8.90;99.90
24860;DHT22;12936;52.006;4.350;2023-11-22T12:07:28;8.90;99.90
24860;DHT22;12936;52.006;4.350;2023-11-22T12:09:55;8.90;99.90
24860;DHT22;12936;52.006;4.350;2023-11-22T12:12:24;8.90;99.90
24860;DHT22;12936;52.006;4.350;2023-11-22T12:14:52;8.90;99.90
24860;DHT22;12936;52.006;4.350;2023-11-22T12:17:22;8.90;99.90
24860;DHT22;12936;52.006;4.350;2023-11-22T12:19:51;8.90;99.90
24860;DHT22;12936;52.006;4.350;2023-11-22T12:22:20;9.00;99.90
24860;DHT22;12936;52.006;4.350;2023-11-22T12:24:48;9.10;99.90
24860;DHT22;12936;52.006;4.350;2023-11-22T12:27:17;9.10;99.90
24860;DHT22;12936;52.006;4.350;2023-11-22T12:29:46;9.10;99.90
24860;DHT22;12936;52.006;4.350;2023-11-22T12:32:14;9.10;99.90
24860;DHT22;12936;52.006;4.350;2023-11-22T12:34:44;9.00;99.90
24860;DHT22;12936;52.006;4.350;2023-11-22T12:37:13;9.10;99.90
24860;DHT22;12936;52.006;4.350;2023-11-22T12:39:44;9.10;99.90
24860;DHT22;12936;52.006;4.350;2023-11-22T12:42:14;9.20;99.90
24860;DHT22;12936;52.006;4.350;2023-11-22T12:44:49;9.20;99.90
24860;DHT22;12936;52.006;4.350;2023-11-22T12:47:31;9.30;99.90
24860;DHT22;12936;52.006;4.350;2023-11-22T12:50:02;9.30;99.90
24860;DHT22;12936;52.006;4.350;2023-11-22T12:52:30;9.30;99.90
24860;DHT22;12936;52.006;4.350;2023-11-22T12:55:01;9.30;99.90
24860;DHT22;12936;52.006;4.350;2023-11-22T12:57:29;9.30;99.90
24860;DHT22;12936;52.006;4.350;2023-11-22T12:59:57;9.20;99.90
24860;DHT22;12936;52.006;4.350;2023-11-22T13:02:26;9.30;99.90
24860;DHT22;12936;52.006;4.350;2023-11-22T13:04:56;9.30;99.90
24860;DHT22;12936;52.006;4.350;2023-11-22T13:07:24;9.30;99.90
24860;DHT22;12936;52.006;4.350;2023-11-22T13:09:53;9.30;99.90
24860;DHT22;12936;52.006;4.350;2023-11-22T13:12:23;9.30;99.90
24860;DHT22;12936;52.006;4.350;2023-11-22T13:14:51;9.20;99.90
24860;DHT22;12936;52.006;4.350;2023-11-22T13:17:19;9.30;99.90
24860;DHT22;12936;52.006;4.350;2023-11-22T13:19:47;9.20;99.90
24860;DHT22;12936;52.006;4.350;2023-11-22T13:22:16;9.20;99.90
24860;DHT22;12936;52.006;4.350;2023-11-22T13:24:46;9.30;99.90
24860;DHT22;12936;52.006;4.350;2023-11-22T13:27:14;9.20;99.90
24860;DHT22;12936;52.006;4.350;2023-11-22T13:29:43;9.20;99.90
24860;DHT22;12936;52.006;4.350;2023-11-22T13:32:12;9.20;99.90
24860;DHT22;12936;52.006;4.350;2023-11-22T13:34:40;9.20;99.90
24860;DHT22;12936;52.006;4.350;2023-11-22T13:37:08;9.20;99.90
24860;DHT22;12936;52.006;4.350;2023-11-22T13:39:36;9.10;99.90
24860;DHT22;12936;52.006;4.350;2023-11-22T13:42:04;9.10;99.90
24860;DHT22;12936;52.006;4.350;2023-11-22T13:44:32;9.10;99.90
24860;DHT22;12936;52.006;4.350;2023-11-22T13:47:01;9.10;99.90
24860;DHT22;12936;52.006;4.350;2023-11-22T13:49:31;9.10;99.90
24860;DHT22;12936;52.006;4.350;2023-11-22T13:51:59;9.20;99.90
24860;DHT22;12936;52.006;4.350;2023-11-22T13:54:27;9.10;99.90
24860;DHT22;12936;52.006;4.350;2023-11-22T13:56:55;9.00;99.90
24860;DHT22;12936;52.006;4.350;2023-11-22T13:59:23;9.00;99.90
24860;DHT22;12936;52.006;4.350;2023-11-22T14:01:51;9.00;99.90
24860;DHT22;12936;52.006;4.350;2023-11-22T14:04:21;9.00;99.90
24860;DHT22;12936;52.006;4.350;2023-11-22T14:06:49;8.90;99.90
24860;DHT22;12936;52.006;4.350;2023-11-22T14:09:17;9.00;99.90
24860;DHT22;12936;52.006;4.350;2023-11-22T14:11:46;8.90;99.90
24860;DHT22;12936;52.006;4.350;2023-11-22T14:14:16;8.90;99.90
24860;DHT22;12936;52.006;4.350;2023-11-22T14:16:46;8.90;99.90
24860;DHT22;12936;52.006;4.350;2023-11-22T14:19:15;8.90;99.90
24860;DHT22;12936;52.006;4.350;2023-11-22T14:21:45;8.90;99.90
24860;DHT22;12936;52.006;4.350;2023-11-22T14:24:13;8.90;99.90
24860;DHT22;12936;52.006;4.350;2023-11-22T14:26:41;8.90;99.90
24860;DHT22;12936;52.006;4.350;2023-11-22T14:29:09;8.90;99.90
24860;DHT22;12936;52.006;4.350;2023-11-22T14:31:38;8.90;99.90
24860;DHT22;12936;52.006;4.350;2023-11-22T14:34:07;8.90;99.90
24860;DHT22;12936;52.006;4.350;2023-11-22T14:36:38;8.90;99.90
24860;DHT22;12936;52.006;4.350;2023-11-22T14:39:07;8.80;99.90
24860;DHT22;12936;52.006;4.350;2023-11-22T14:41:38;8.80;99.90
24860;DHT22;12936;52.006;4.350;2023-11-22T14:44:07;8.80;99.90
24860;DHT22;12936;52.006;4.350;2023-11-22T14:46:36;8.80;99.90
24860;DHT22;12936;52.006;4.350;2023-11-22T14:49:04;8.90;99.90
24860;DHT22;12936;52.006;4.350;2023-11-22T14:51:34;8.90;99.90
24860;DHT22;12936;52.006;4.350;2023-11-22T14:54:06;8.80;99.90
24860;DHT22;12936;52.006;4.350;2023-11-22T14:56:34;8.80;99.90
24860;DHT22;12936;52.006;4.350;2023-11-22T14:59:04;8.80;99.90
24860;DHT22;12936;52.006;4.350;2023-11-22T15:01:33;8.80;99.90
24860;DHT22;12936;52.006;4.350;2023-11-22T15:04:01;8.80;99.90
24860;DHT22;12936;52.006;4.350;2023-11-22T15:06:29;8.80;99.90
24860;DHT22;12936;52.006;4.350;2023-11-22T15:08:58;8.80;99.90
24860;DHT22;12936;52.006;4.350;2023-11-22T15:11:27;8.70;99.90
24860;DHT22;12936;52.006;4.350;2023-11-22T15:13:57;8.70;99.90
24860;DHT22;12936;52.006;4.350;2023-11-22T15:16:25;8.70;99.90
24860;DHT22;12936;52.006;4.350;2023-11-22T15:18:53;8.60;99.90
24860;DHT22;12936;52.006;4.350;2023-11-22T15:21:21;8.60;99.90
24860;DHT22;12936;52.006;4.350;2023-11-22T15:23:49;8.60;99.90
24860;DHT22;12936;52.006;4.350;2023-11-22T15:26:18;8.50;99.90
24860;DHT22;12936;52.006;4.350;2023-11-22T15:28:50;8.60;99.90
24860;DHT22;12936;52.006;4.350;2023-11-22T15:31:18;8.50;99.90
24860;DHT22;12936;52.006;4.350;2023-11-22T15:33:49;8.60;99.90
24860;DHT22;12936;52.006;4.350;2023-11-22T15:36:17;8.50;99.90
24860;DHT22;12936;52.006;4.350;2023-11-22T15:38:46;8.50;99.90
24860;DHT22;12936;52.006;4.350;2023-11-22T15:41:15;8.50;99.90
24860;DHT22;12936;52.006;4.350;2023-11-22T15:43:50;8.50;99.90
24860;DHT22;12936;52.006;4.350;2023-11-22T15:46:18;8.50;99.90
24860;DHT22;12936;52.006;4.350;2023-11-22T15:48:51;8.50;99.90
24860;DHT22;12936;52.006;4.350;2023-11-22T15:51:19;8.50;99.90
24860;DHT22;12936;52.006;4.350;2023-11-22T15:53:47;8.40;99.90
24860;DHT22;12936;52.006;4.350;2023-11-22T15:56:16;8.50;99.90
24860;DHT22;12936;52.006;4.350;2023-11-22T15:58:44;8.40;99.90
24860;DHT22;12936;52.006;4.350;2023-11-22T16:01:14;8.40;99.90
24860;DHT22;12936;52.006;4.350;2023-11-22T16:03:43;8.50;99.90
24860;DHT22;12936;52.006;4.350;2023-11-22T16:06:11;8.50;99.90
24860;DHT22;12936;52.006;4.350;2023-11-22T16:08:40;8.40;99.90
24860;DHT22;12936;52.006;4.350;2023-11-22T16:11:08;8.40;99.90
24860;DHT22;12936;52.006;4.350;2023-11-22T16:13:39;8.40;99.90
24860;DHT22;12936;52.006;4.350;2023-11-22T16:16:07;8.50;99.90
24860;DHT22;12936;52.006;4.350;2023-11-22T16:18:37;8.50;99.90